Time;durP1;ratioP1;P1;durP2;ratioP2;P2;SDS_P1;SDS_P2;PMS_P1;PMS_P2;Temp;Humidity;BMP_temperature;BMP_pressure;BME280_temperature;BME280_humidity;BME280_pressure;Samples;Min_cycle;Max_cycle;Signal;HPM_P1;HPM_P2
2022/02/02 00:03:44;;;;;;;7.70;5.45;;;5.90;99.90;;;;;;459891;258;27563;-68
2022/02/02 00:07:56;;;;;;;5.72;4.70;;;5.80;99.90;;;;;;459881;258;27510;-68
2022/02/02 00:09:57;;;;;;;5.30;4.68;;;5.80;99.90;;;;;;459860;258;28031;-68
2022/02/02 00:16:46;;;;;;;5.45;4.60;;;5.90;99.90;;;;;;459862;258;27514;-68
2022/02/02 00:18:49;;;;;;;5.62;4.78;;;5.80;99.90;;;;;;459907;258;27532;-68
2022/02/02 00:20:56;;;;;;;5.70;5.07;;;5.90;99.90;;;;;;459889;258;27587;-68
2022/02/02 00:22:57;;;;;;;8.13;4.68;;;5.90;99.90;;;;;;459832;258;27575;-68
2022/02/02 00:25:18;;;;;;;8.18;5.22;;;5.90;99.90;;;;;;459864;258;27546;-68
2022/02/02 00:27:16;;;;;;;7.70;5.47;;;5.90;99.90;;;;;;459864;258;28003;-68
2022/02/02 00:29:20;;;;;;;6.32;5.15;;;6.00;99.90;;;;;;459887;258;27506;-68
2022/02/02 00:31:22;;;;;;;10.30;5.93;;;6.00;99.90;;;;;;459879;258;27475;-70
2022/02/02 00:35:23;;;;;;;9.63;6.35;;;6.10;99.90;;;;;;459863;258;27555;-70
2022/02/02 00:37:20;;;;;;;7.43;5.05;;;6.10;99.90;;;;;;459895;258;27585;-70
2022/02/02 00:39:22;;;;;;;8.00;5.30;;;6.10;99.90;;;;;;459881;258;27507;-68
2022/02/02 00:41:23;;;;;;;12.50;5.87;;;6.10;99.90;;;;;;459860;258;27932;-70
2022/02/02 00:43:24;;;;;;;7.70;5.37;;;6.10;99.90;;;;;;459847;258;28093;-70
2022/02/02 00:45:31;;;;;;;8.77;4.80;;;6.10;99.90;;;;;;459893;258;28174;-70
2022/02/02 00:47:33;;;;;;;8.00;4.85;;;6.20;99.90;;;;;;459874;258;27556;-70
2022/02/02 00:49:28;;;;;;;10.40;5.15;;;6.20;99.90;;;;;;459891;258;27522;-70
2022/02/02 00:51:37;;;;;;;8.02;5.25;;;6.20;99.90;;;;;;459865;258;27598;-70
2022/02/02 00:53:30;;;;;;;7.53;4.30;;;6.20;99.90;;;;;;459869;258;27487;-70
2022/02/02 00:55:33;;;;;;;8.57;4.68;;;6.10;99.90;;;;;;459890;258;27626;-69
2022/02/02 00:57:33;;;;;;;8.20;4.15;;;6.10;99.90;;;;;;459850;258;27454;-70
2022/02/02 00:59:34;;;;;;;5.28;4.75;;;6.00;99.90;;;;;;459869;258;28093;-69
2022/02/02 01:01:35;;;;;;;9.05;4.85;;;6.00;99.90;;;;;;459863;258;27927;-69
2022/02/02 01:03:37;;;;;;;9.57;5.00;;;6.00;99.90;;;;;;459893;258;27490;-70
2022/02/02 01:05:38;;;;;;;9.13;5.15;;;6.00;99.90;;;;;;459891;258;27510;-69
2022/02/02 01:10:08;;;;;;;10.45;4.62;;;5.90;99.90;;;;;;459898;258;27564;-69
2022/02/02 01:18:47;;;;;;;11.90;4.53;;;5.80;99.90;;;;;;451608;263;27513;-69
2022/02/02 01:20:49;;;;;;;11.68;4.57;;;5.80;99.90;;;;;;451714;262;28018;-69
2022/02/02 01:27:48;;;;;;;8.52;3.35;;;5.80;99.90;;;;;;451727;262;28092;-69
2022/02/02 01:29:20;;;;;;;14.25;3.62;;;5.80;99.90;;;;;;451586;261;27621;-69
2022/02/02 01:31:21;;;;;;;8.50;3.50;;;5.70;99.90;;;;;;451588;263;27642;-69
2022/02/02 01:33:23;;;;;;;7.10;3.80;;;5.70;99.90;;;;;;451580;263;27696;-69
2022/02/02 01:35:25;;;;;;;11.63;4.70;;;5.70;99.90;;;;;;451591;263;27574;-69
2022/02/02 01:37:27;;;;;;;10.63;4.25;;;5.80;99.90;;;;;;451611;262;27553;-70
2022/02/02 01:39:28;;;;;;;11.05;4.50;;;5.80;99.90;;;;;;451573;262;28075;-69
2022/02/02 01:41:32;;;;;;;9.75;5.15;;;5.80;99.90;;;;;;451582;261;28599;-69
2022/02/02 01:43:35;;;;;;;6.85;4.43;;;5.70;99.90;;;;;;451602;262;27644;-70
2022/02/02 01:45:37;;;;;;;13.60;4.90;;;5.70;99.90;;;;;;451550;262;27814;-69
2022/02/02 01:47:41;;;;;;;11.15;4.87;;;5.70;99.90;;;;;;452547;258;27606;-69
2022/02/02 01:52:11;;;;;;;10.70;5.00;;;5.60;99.90;;;;;;459873;258;27954;-69
2022/02/02 01:54:12;;;;;;;9.40;5.60;;;5.60;99.90;;;;;;459953;258;27558;-69
2022/02/02 01:55:55;;;;;;;9.65;5.05;;;5.50;99.90;;;;;;459726;258;27583;-69
2022/02/02 01:58:06;;;;;;;11.90;5.55;;;5.50;99.90;;;;;;459884;258;27463;-69
2022/02/02 02:00:00;;;;;;;10.13;4.62;;;5.60;99.90;;;;;;459898;258;27868;-69
2022/02/02 02:02:01;;;;;;;11.15;4.90;;;5.60;99.90;;;;;;459859;258;28101;-69
2022/02/02 02:04:02;;;;;;;13.18;4.70;;;5.60;99.90;;;;;;459885;258;28044;-69
2022/02/02 02:06:04;;;;;;;10.70;4.03;;;5.60;99.90;;;;;;459907;258;27532;-69
2022/02/02 02:08:05;;;;;;;6.97;4.30;;;5.60;99.90;;;;;;459914;258;27617;-69
2022/02/02 02:10:06;;;;;;;12.25;4.50;;;5.60;99.90;;;;;;459889;258;27462;-69
2022/02/02 02:12:08;;;;;;;5.47;4.07;;;5.60;99.90;;;;;;459878;258;27498;-69
2022/02/02 02:14:39;;;;;;;13.73;5.15;;;5.60;99.90;;;;;;459862;258;27503;-69
2022/02/02 02:16:22;;;;;;;11.95;4.00;;;5.60;99.90;;;;;;459803;258;27909;-69
2022/02/02 02:18:23;;;;;;;7.82;4.20;;;5.70;99.90;;;;;;459866;258;27505;-69
2022/02/02 02:20:25;;;;;;;24.20;4.90;;;5.70;99.90;;;;;;459869;258;27483;-69
2022/02/02 02:22:30;;;;;;;12.82;4.62;;;5.70;99.90;;;;;;459890;258;27447;-69
2022/02/02 02:24:27;;;;;;;9.75;3.75;;;5.70;99.90;;;;;;459866;258;27559;-69
2022/02/02 02:26:29;;;;;;;10.80;4.28;;;5.70;99.90;;;;;;459885;258;27494;-70
2022/02/02 02:28:42;;;;;;;11.82;4.40;;;5.70;99.90;;;;;;459867;258;27614;-69
2022/02/02 02:30:49;;;;;;;17.87;4.90;;;5.60;99.90;;;;;;459912;258;28140;-69
2022/02/02 02:57:18;;;;;;;10.63;4.15;;;5.80;99.90;;;;;;459900;258;27484;-69
2022/02/02 02:59:30;;;;;;;10.38;3.92;;;5.80;99.90;;;;;;460320;258;27679;-69
2022/02/02 03:01:35;;;;;;;14.77;3.95;;;5.80;99.90;;;;;;459967;258;27601;-69
2022/02/02 03:29:53;;;;;;;11.82;4.32;;;5.90;99.90;;;;;;459875;258;28072;-69
2022/02/02 03:51:26;;;;;;;11.70;4.00;;;5.90;99.90;;;;;;459878;258;27467;-69
2022/02/02 03:55:29;;;;;;;9.32;3.72;;;5.80;99.90;;;;;;459865;258;28088;-70
2022/02/02 03:59:38;;;;;;;13.62;4.20;;;5.90;99.90;;;;;;459874;258;27475;-69
2022/02/02 04:05:40;;;;;;;19.33;4.37;;;5.90;99.90;;;;;;459893;258;27471;-69
2022/02/02 04:07:51;;;;;;;14.43;3.90;;;6.00;99.90;;;;;;459882;258;27501;-70
2022/02/02 04:09:46;;;;;;;13.45;3.62;;;6.00;99.90;;;;;;459658;258;27529;-70
2022/02/02 04:11:55;;;;;;;11.95;3.75;;;6.00;99.90;;;;;;459865;258;27499;-70
2022/02/02 04:54:58;;;;;;;9.13;3.08;;;5.80;99.90;;;;;;459882;258;27894;-69
2022/02/02 05:06:00;;;;;;;14.25;4.57;;;5.70;99.90;;;;;;459850;258;27603;-69
2022/02/02 05:08:08;;;;;;;11.60;3.50;;;5.70;99.90;;;;;;459892;258;27541;-69
2022/02/02 05:10:13;;;;;;;14.50;4.03;;;5.70;99.90;;;;;;459921;258;27498;-69
2022/02/02 05:16:51;;;;;;;18.65;4.93;;;5.60;99.90;;;;;;460334;258;27559;-70
2022/02/02 05:19:22;;;;;;;14.40;3.87;;;5.70;99.90;;;;;;459788;258;27527;-69
2022/02/02 05:21:31;;;;;;;10.52;5.43;;;5.70;99.90;;;;;;459867;258;27495;-70
2022/02/02 05:26:13;;;;;;;9.00;3.65;;;5.70;99.90;;;;;;453278;258;27657;-70
2022/02/02 05:50:17;;;;;;;18.15;3.75;;;5.60;99.90;;;;;;459876;258;27526;-70
2022/02/02 05:51:59;;;;;;;7.00;3.50;;;5.60;99.90;;;;;;460357;258;27523;-69
2022/02/02 05:54:05;;;;;;;9.02;3.10;;;5.60;99.90;;;;;;459859;258;27459;-69
2022/02/02 05:56:02;;;;;;;9.15;3.58;;;5.60;99.90;;;;;;459867;258;27478;-69
2022/02/02 05:58:03;;;;;;;8.38;2.92;;;5.60;99.90;;;;;;459875;258;27599;-70
2022/02/02 06:00:04;;;;;;;11.07;3.33;;;5.70;99.90;;;;;;459865;258;27554;-69
2022/02/02 06:02:05;;;;;;;10.13;3.10;;;5.60;99.90;;;;;;459852;258;27499;-69
2022/02/02 06:04:07;;;;;;;14.07;3.80;;;5.60;99.90;;;;;;459859;258;28848;-69
2022/02/02 06:06:08;;;;;;;13.65;3.83;;;5.60;99.90;;;;;;459863;258;28035;-69
2022/02/02 06:08:09;;;;;;;8.25;3.78;;;5.70;99.90;;;;;;459862;258;27610;-70
2022/02/02 06:10:13;;;;;;;16.90;3.67;;;5.70;99.90;;;;;;459881;258;27537;-69
2022/02/02 06:12:12;;;;;;;12.60;3.60;;;5.70;99.90;;;;;;459849;258;27495;-70
2022/02/02 06:14:13;;;;;;;12.10;3.40;;;5.60;99.90;;;;;;459886;258;27471;-70
2022/02/02 06:16:15;;;;;;;14.70;3.70;;;5.60;99.90;;;;;;460371;258;27663;-70
2022/02/02 06:18:15;;;;;;;21.10;3.90;;;5.60;99.90;;;;;;459885;258;27539;-69
2022/02/02 06:20:17;;;;;;;10.63;3.45;;;5.70;99.90;;;;;;459875;258;27911;-69
2022/02/02 06:22:19;;;;;;;9.82;3.60;;;5.70;99.90;;;;;;459852;258;28069;-70
2022/02/02 06:24:19;;;;;;;11.12;3.90;;;5.60;99.90;;;;;;459905;258;28036;-69
2022/02/02 06:26:20;;;;;;;14.52;3.92;;;5.70;99.90;;;;;;459871;258;27478;-69
2022/02/02 06:28:22;;;;;;;14.00;3.35;;;5.70;99.90;;;;;;459898;258;27502;-69
2022/02/02 06:30:23;;;;;;;13.75;3.95;;;5.70;99.90;;;;;;459870;258;27548;-70
2022/02/02 06:32:24;;;;;;;14.93;4.53;;;5.70;99.90;;;;;;459851;258;27483;-69
2022/02/02 06:34:27;;;;;;;9.73;3.70;;;5.70;99.90;;;;;;459905;258;27586;-70
2022/02/02 06:36:28;;;;;;;11.07;3.20;;;5.70;99.90;;;;;;459896;258;27497;-69
2022/02/02 06:38:30;;;;;;;10.68;3.45;;;5.70;99.90;;;;;;459872;258;27591;-70
2022/02/02 06:40:31;;;;;;;9.70;3.40;;;5.70;99.90;;;;;;459876;258;27947;-69
2022/02/02 06:42:32;;;;;;;8.48;3.17;;;5.70;99.90;;;;;;459871;258;28084;-69
2022/02/02 06:44:33;;;;;;;14.30;3.67;;;5.70;99.90;;;;;;459847;258;27455;-70
2022/02/02 06:46:38;;;;;;;14.27;4.03;;;5.70;99.90;;;;;;459798;258;27509;-69
2022/02/02 06:48:36;;;;;;;12.75;3.92;;;5.70;99.90;;;;;;459801;258;27559;-70
2022/02/02 06:50:40;;;;;;;11.55;3.00;;;5.60;99.90;;;;;;459924;258;27493;-69
2022/02/02 06:52:38;;;;;;;11.30;3.62;;;5.70;99.90;;;;;;459888;258;27495;-70
2022/02/02 06:54:48;;;;;;;12.73;3.55;;;5.70;99.90;;;;;;459878;258;27565;-69
2022/02/02 06:56:51;;;;;;;7.87;3.83;;;5.70;99.90;;;;;;459858;258;27493;-70
2022/02/02 07:01:30;;;;;;;17.27;4.28;;;5.70;99.90;;;;;;459861;258;27582;-69
2022/02/02 07:03:21;;;;;;;19.60;3.70;;;5.70;99.90;;;;;;460181;258;28768;-70
2022/02/02 07:05:35;;;;;;;8.48;3.62;;;5.80;99.90;;;;;;459906;258;28029;-70
2022/02/02 07:07:43;;;;;;;12.10;4.37;;;5.80;99.90;;;;;;459878;258;27993;-70
2022/02/02 07:09:56;;;;;;;17.45;4.55;;;5.80;99.90;;;;;;459917;258;27575;-70
2022/02/02 07:11:55;;;;;;;11.93;3.83;;;5.80;99.90;;;;;;459768;258;28035;-70
2022/02/02 07:13:59;;;;;;;14.23;3.72;;;5.80;99.90;;;;;;459714;258;28069;-70
2022/02/02 07:15:53;;;;;;;13.07;4.43;;;5.80;99.90;;;;;;459787;258;27495;-70
2022/02/02 07:18:41;;;;;;;15.25;4.47;;;5.80;99.90;;;;;;459876;258;27510;-69
2022/02/02 07:20:11;;;;;;;7.10;3.25;;;5.80;99.90;;;;;;457975;258;27526;-70
2022/02/02 07:22:25;;;;;;;12.75;3.55;;;5.80;99.90;;;;;;459879;258;27923;-70
2022/02/02 07:29:09;;;;;;;11.75;3.47;;;5.90;99.90;;;;;;460342;257;28729;-70
2022/02/02 07:31:19;;;;;;;11.32;3.83;;;5.90;99.90;;;;;;459868;258;27943;-70
2022/02/02 07:33:16;;;;;;;9.80;3.35;;;5.90;99.90;;;;;;459903;258;27966;-69
2022/02/02 07:35:21;;;;;;;16.87;3.90;;;5.90;99.90;;;;;;459874;258;28017;-70
2022/02/02 07:37:25;;;;;;;15.32;3.90;;;5.80;99.90;;;;;;459905;258;27463;-69
2022/02/02 07:39:17;;;;;;;12.15;4.07;;;5.80;99.90;;;;;;459903;258;27505;-69
2022/02/02 07:41:18;;;;;;;17.10;4.15;;;5.80;99.90;;;;;;459880;258;27481;-70
2022/02/02 07:43:20;;;;;;;14.25;3.75;;;5.80;99.90;;;;;;459856;258;27963;-69
2022/02/02 07:45:22;;;;;;;13.80;3.65;;;5.80;99.90;;;;;;459902;258;28086;-70
2022/02/02 07:47:22;;;;;;;11.80;3.75;;;5.80;99.90;;;;;;459867;258;27471;-70
2022/02/02 07:49:29;;;;;;;14.43;3.72;;;5.80;99.90;;;;;;459888;258;27566;-70
2022/02/02 07:51:25;;;;;;;10.57;3.72;;;5.80;99.90;;;;;;459910;258;27470;-69
2022/02/02 07:53:34;;;;;;;12.68;4.12;;;5.80;99.90;;;;;;459884;258;27478;-69
2022/02/02 07:55:29;;;;;;;15.30;3.87;;;5.80;99.90;;;;;;459919;258;27514;-69
2022/02/02 07:57:28;;;;;;;13.62;4.10;;;5.80;99.90;;;;;;459860;258;27931;-69
2022/02/02 08:01:34;;;;;;;8.63;3.70;;;5.90;99.90;;;;;;459876;258;27506;-70
2022/02/02 08:03:41;;;;;;;15.38;4.00;;;5.90;99.90;;;;;;459867;258;27514;-69
2022/02/02 08:05:43;;;;;;;10.88;4.18;;;5.90;99.90;;;;;;459880;258;27594;-69
2022/02/02 08:07:46;;;;;;;14.30;4.20;;;5.90;99.90;;;;;;459854;258;27597;-69
2022/02/02 08:09:48;;;;;;;18.90;4.55;;;5.90;99.90;;;;;;459861;258;27977;-70
2022/02/02 08:11:43;;;;;;;11.02;3.90;;;6.00;99.90;;;;;;459876;258;28004;-70
2022/02/02 08:13:47;;;;;;;13.40;3.65;;;6.00;99.90;;;;;;459906;258;27547;-70
2022/02/02 08:15:54;;;;;;;14.63;4.80;;;6.00;99.90;;;;;;459891;258;27498;-69
2022/02/02 08:17:49;;;;;;;10.45;3.95;;;6.10;99.90;;;;;;459869;258;27542;-70
2022/02/02 08:19:51;;;;;;;16.77;3.85;;;6.10;99.90;;;;;;459870;258;27499;-70
2022/02/02 08:21:49;;;;;;;11.18;3.87;;;6.20;99.90;;;;;;459878;258;27551;-70
2022/02/02 08:23:50;;;;;;;14.27;4.22;;;6.20;99.90;;;;;;459907;258;27982;-70
2022/02/02 08:25:52;;;;;;;14.27;3.80;;;6.30;99.90;;;;;;459883;258;27499;-70
2022/02/02 08:27:54;;;;;;;13.77;4.10;;;6.30;99.90;;;;;;459897;258;27466;-70
2022/02/02 08:29:54;;;;;;;14.87;4.05;;;6.30;99.90;;;;;;459882;258;27584;-70
2022/02/02 08:31:55;;;;;;;12.95;4.12;;;6.40;99.90;;;;;;459887;258;27485;-70
2022/02/02 08:34:00;;;;;;;8.88;3.67;;;6.40;99.90;;;;;;459901;258;27470;-70
2022/02/02 08:35:58;;;;;;;16.40;3.78;;;6.40;99.90;;;;;;459877;258;28105;-70
2022/02/02 08:38:08;;;;;;;10.45;3.70;;;6.50;99.90;;;;;;459897;258;27999;-70
2022/02/02 08:40:18;;;;;;;8.45;3.55;;;6.50;99.90;;;;;;459901;258;27530;-70
2022/02/02 08:42:04;;;;;;;12.50;3.80;;;6.40;99.90;;;;;;459960;258;27527;-70
2022/02/02 08:44:10;;;;;;;10.20;4.30;;;6.40;99.90;;;;;;459898;258;27478;-70
2022/02/02 08:46:17;;;;;;;16.58;4.95;;;6.50;99.90;;;;;;459615;258;27490;-70
2022/02/02 08:48:10;;;;;;;13.40;4.87;;;6.50;99.90;;;;;;459634;258;27950;-70
2022/02/02 08:50:09;;;;;;;22.52;4.72;;;6.60;99.90;;;;;;459696;258;27471;-70
2022/02/02 08:52:11;;;;;;;12.88;4.90;;;6.60;99.90;;;;;;459688;258;27515;-70
2022/02/02 08:54:21;;;;;;;14.85;4.37;;;6.60;99.90;;;;;;459792;258;27562;-70
2022/02/02 08:56:33;;;;;;;13.25;5.00;;;6.60;99.90;;;;;;459879;258;27484;-70
2022/02/02 09:00:24;;;;;;;18.35;4.40;;;6.60;99.90;;;;;;459897;258;27991;-70
2022/02/02 09:02:27;;;;;;;10.23;3.90;;;6.60;99.90;;;;;;459871;258;27914;-70
2022/02/02 09:06:44;;;;;;;12.85;4.15;;;6.70;99.90;;;;;;459884;258;27458;-70
2022/02/02 09:08:48;;;;;;;15.57;4.68;;;6.80;99.90;;;;;;460365;258;27931;-70
2022/02/02 09:20:00;;;;;;;16.08;4.15;;;6.90;99.90;;;;;;460374;257;27491;-70
2022/02/02 09:24:25;;;;;;;16.45;4.05;;;6.90;99.90;;;;;;459894;258;28133;-70
2022/02/02 09:35:26;;;;;;;17.27;4.18;;;7.20;99.90;;;;;;459887;258;27558;-70
2022/02/02 09:37:28;;;;;;;14.40;4.28;;;7.20;99.90;;;;;;459883;258;27582;-70
2022/02/02 09:39:36;;;;;;;16.77;5.10;;;7.20;99.90;;;;;;459905;258;27599;-70
2022/02/02 09:43:33;;;;;;;16.25;5.10;;;7.10;99.90;;;;;;459883;258;29349;-70
2022/02/02 09:45:33;;;;;;;17.70;3.60;;;7.00;99.90;;;;;;459833;258;28818;-70
2022/02/02 09:47:42;;;;;;;17.87;4.82;;;7.00;99.90;;;;;;459880;258;27487;-70
2022/02/02 09:51:46;;;;;;;12.50;4.10;;;7.10;99.90;;;;;;459911;258;27588;-70
2022/02/02 09:53:54;;;;;;;18.30;3.90;;;7.10;99.90;;;;;;459884;258;27589;-70
2022/02/02 09:56:08;;;;;;;15.73;4.15;;;7.20;99.90;;;;;;459728;258;27594;-70
2022/02/02 09:58:21;;;;;;;14.95;4.45;;;7.20;99.90;;;;;;459779;258;27956;-70
2022/02/02 10:06:43;;;;;;;13.25;4.07;;;7.20;99.90;;;;;;459936;258;27637;-70
2022/02/02 10:13:04;;;;;;;14.45;3.70;;;7.20;99.90;;;;;;459918;258;27542;-70
2022/02/02 10:14:53;;;;;;;8.97;3.77;;;7.10;99.90;;;;;;459964;258;27525;-70
2022/02/02 10:16:50;;;;;;;14.18;4.15;;;7.10;99.90;;;;;;459692;258;28857;-70
2022/02/02 10:18:50;;;;;;;12.97;4.07;;;7.10;99.90;;;;;;459882;258;28002;-70
2022/02/02 10:20:51;;;;;;;8.30;3.60;;;7.10;99.90;;;;;;459925;255;28331;-70
2022/02/02 10:22:53;;;;;;;10.87;3.80;;;7.20;99.90;;;;;;459917;258;28774;-70
2022/02/02 10:24:54;;;;;;;19.17;4.40;;;7.20;99.90;;;;;;459915;258;27880;-70
2022/02/02 10:26:55;;;;;;;14.25;4.32;;;7.20;99.90;;;;;;459884;258;28591;-70
2022/02/02 10:28:56;;;;;;;11.82;4.20;;;7.20;99.90;;;;;;459876;258;27482;-70
2022/02/02 10:30:58;;;;;;;15.43;4.40;;;7.20;99.90;;;;;;459932;258;27602;-70
2022/02/02 10:32:59;;;;;;;12.50;4.05;;;7.10;99.90;;;;;;459910;258;28879;-70
2022/02/02 10:35:00;;;;;;;15.50;4.15;;;7.10;99.90;;;;;;459903;258;27957;-70
2022/02/02 10:37:02;;;;;;;14.10;4.00;;;7.20;99.90;;;;;;459920;258;28088;-70
2022/02/02 10:39:24;;;;;;;14.83;4.20;;;7.30;99.90;;;;;;459913;258;27794;-69
2022/02/02 10:43:14;;;;;;;13.20;3.33;;;7.40;99.90;;;;;;459885;258;28809;-70
2022/02/02 10:45:15;;;;;;;11.03;3.70;;;7.40;99.90;;;;;;459888;258;27984;-70
2022/02/02 10:47:24;;;;;;;9.27;3.77;;;7.40;99.90;;;;;;459879;258;28903;-70
2022/02/02 10:49:36;;;;;;;10.47;3.33;;;7.50;99.90;;;;;;459896;258;27744;-70
2022/02/02 10:51:49;;;;;;;13.03;3.73;;;7.60;99.90;;;;;;459898;254;28190;-70
2022/02/02 10:58:17;;;;;;;10.83;3.47;;;7.60;99.90;;;;;;459916;258;27888;-70
2022/02/02 11:00:24;;;;;;;11.33;3.70;;;7.70;99.90;;;;;;459957;258;28054;-70
2022/02/02 11:06:37;;;;;;;9.57;3.60;;;7.60;99.90;;;;;;459897;258;28493;-70
2022/02/02 11:08:36;;;;;;;11.03;3.70;;;7.50;99.90;;;;;;460381;258;28107;-70
2022/02/02 11:10:38;;;;;;;9.47;3.30;;;7.60;99.90;;;;;;459900;258;27972;-70
2022/02/02 11:12:39;;;;;;;12.13;3.83;;;7.60;99.90;;;;;;459882;258;28601;-70
2022/02/02 11:14:40;;;;;;;10.67;3.27;;;7.60;99.90;;;;;;459883;258;28877;-70
2022/02/02 11:16:41;;;;;;;8.90;3.60;;;7.60;99.90;;;;;;459891;258;28039;-70
2022/02/02 11:18:43;;;;;;;6.15;3.12;;;7.60;99.90;;;;;;459911;258;28535;-70
2022/02/02 11:20:45;;;;;;;22.67;4.93;;;7.60;99.90;;;;;;459904;258;27476;-70
2022/02/02 11:22:45;;;;;;;9.10;3.07;;;7.50;99.90;;;;;;459887;258;27972;-70
2022/02/02 11:24:46;;;;;;;10.53;3.63;;;7.50;99.90;;;;;;459894;258;27996;-70
2022/02/02 11:26:48;;;;;;;11.83;3.50;;;7.40;99.90;;;;;;459901;258;28132;-70
2022/02/02 11:28:49;;;;;;;11.93;3.57;;;7.40;99.90;;;;;;459897;258;27870;-70
2022/02/02 11:30:50;;;;;;;20.13;3.30;;;7.50;99.90;;;;;;459907;258;28050;-70
2022/02/02 11:32:52;;;;;;;14.07;3.77;;;7.50;99.90;;;;;;459887;258;28909;-70
2022/02/02 11:34:53;;;;;;;11.13;3.10;;;7.50;99.90;;;;;;459877;258;28037;-70
2022/02/02 11:36:54;;;;;;;7.53;3.37;;;7.50;99.90;;;;;;459899;258;28327;-70
2022/02/02 11:38:56;;;;;;;11.23;4.07;;;7.40;99.90;;;;;;459921;258;28032;-70
2022/02/02 11:40:56;;;;;;;9.13;3.28;;;7.40;99.90;;;;;;459880;258;27548;-70
2022/02/02 11:43:08;;;;;;;9.93;4.07;;;7.40;99.90;;;;;;459880;258;27526;-70
2022/02/02 11:45:16;;;;;;;18.55;4.37;;;7.40;99.90;;;;;;459907;258;27661;-70
2022/02/02 11:49:13;;;;;;;16.60;4.10;;;7.30;99.90;;;;;;459900;258;27935;-70
2022/02/02 11:51:08;;;;;;;6.50;2.90;;;7.30;99.90;;;;;;459899;258;27944;-70
2022/02/02 11:53:10;;;;;;;11.27;3.60;;;7.20;99.90;;;;;;459907;258;29377;-70
2022/02/02 11:55:11;;;;;;;13.00;3.53;;;7.20;99.90;;;;;;459907;258;27546;-70
2022/02/02 11:57:18;;;;;;;12.98;4.15;;;7.30;99.90;;;;;;459875;258;29024;-70
2022/02/02 11:59:13;;;;;;;9.60;4.18;;;7.40;99.90;;;;;;459930;258;27513;-69
2022/02/02 12:01:25;;;;;;;12.57;3.83;;;7.40;99.90;;;;;;459908;258;27475;-70
2022/02/02 12:03:34;;;;;;;7.87;3.97;;;7.40;99.90;;;;;;459888;258;28775;-70
2022/02/02 12:07:24;;;;;;;7.50;3.60;;;7.40;99.90;;;;;;459916;258;29398;-70
2022/02/02 12:09:31;;;;;;;13.87;4.13;;;7.40;99.90;;;;;;459961;258;28396;-70
2022/02/02 12:11:43;;;;;;;9.48;3.83;;;7.40;99.90;;;;;;459749;258;27998;-70
2022/02/02 12:21:25;;;;;;;12.60;3.90;;;7.40;99.90;;;;;;459902;258;28992;-70
2022/02/02 12:47:55;;;;;;;7.27;3.10;;;7.10;99.90;;;;;;451519;263;28517;-70
2022/02/02 12:50:13;;;;;;;6.68;3.00;;;7.10;99.90;;;;;;458108;258;28661;-70
2022/02/02 12:56:41;;;;;;;10.68;2.95;;;7.20;99.90;;;;;;460347;257;27543;-70
2022/02/02 12:58:47;;;;;;;5.55;3.08;;;7.20;99.90;;;;;;459920;258;27503;-70
2022/02/02 13:01:08;;;;;;;3.92;2.58;;;7.20;99.90;;;;;;459921;258;28087;-70
2022/02/02 13:02:45;;;;;;;8.07;3.37;;;7.30;99.90;;;;;;459305;258;27962;-70
2022/02/02 13:04:44;;;;;;;6.40;2.80;;;7.30;99.90;;;;;;459852;258;27460;-70
2022/02/02 13:06:45;;;;;;;8.83;2.73;;;7.30;99.90;;;;;;459904;258;27559;-70
2022/02/02 13:08:47;;;;;;;5.32;2.85;;;7.30;99.90;;;;;;459901;258;28572;-70
2022/02/02 13:10:48;;;;;;;5.70;2.80;;;7.40;99.90;;;;;;459878;258;27468;-70
2022/02/02 13:15:08;;;;;;;3.83;2.60;;;7.40;99.90;;;;;;459870;258;30093;-70
2022/02/02 13:16:53;;;;;;;4.53;2.70;;;7.40;99.90;;;;;;459851;258;28063;-70
2022/02/02 13:19:00;;;;;;;5.90;3.33;;;7.30;99.90;;;;;;459897;258;29323;-70
2022/02/02 13:23:03;;;;;;;8.93;3.03;;;7.20;99.90;;;;;;459894;258;27511;-70
2022/02/02 13:25:04;;;;;;;4.75;2.78;;;7.20;99.90;;;;;;459847;258;28330;-70
2022/02/02 13:27:14;;;;;;;4.05;2.90;;;7.10;99.90;;;;;;459896;258;27587;-70
2022/02/02 13:29:14;;;;;;;2.90;2.70;;;7.10;99.90;;;;;;459877;258;27467;-70
2022/02/02 13:31:10;;;;;;;6.68;3.30;;;7.10;99.90;;;;;;459884;254;27464;-70
2022/02/02 13:33:13;;;;;;;5.80;2.83;;;7.00;99.90;;;;;;459883;258;27526;-70
2022/02/02 13:35:21;;;;;;;5.28;2.80;;;7.00;99.90;;;;;;459883;258;28896;-70
2022/02/02 13:37:30;;;;;;;4.95;3.00;;;7.10;99.90;;;;;;459756;258;27463;-70
2022/02/02 13:42:20;;;;;;;5.17;2.90;;;7.10;99.90;;;;;;459740;258;27520;-70
2022/02/02 13:44:08;;;;;;;6.10;2.47;;;7.10;99.90;;;;;;459872;258;27923;-70
2022/02/02 13:46:07;;;;;;;6.43;2.95;;;7.10;99.90;;;;;;460122;258;28717;-70
2022/02/02 13:50:24;;;;;;;6.60;2.97;;;7.10;99.90;;;;;;453708;258;27466;-70
2022/02/02 13:54:28;;;;;;;4.40;2.75;;;7.20;99.90;;;;;;459871;258;27501;-70
2022/02/02 13:58:37;;;;;;;2.87;2.30;;;7.30;99.90;;;;;;459884;258;29309;-70
2022/02/02 14:00:51;;;;;;;5.62;2.67;;;7.30;99.90;;;;;;459921;258;28053;-70
2022/02/02 14:05:16;;;;;;;6.20;2.60;;;7.20;99.90;;;;;;459892;258;28675;-70
2022/02/02 14:07:26;;;;;;;4.83;2.97;;;7.20;99.90;;;;;;460346;258;27518;-70
2022/02/02 14:09:22;;;;;;;2.87;2.10;;;7.20;99.90;;;;;;459902;258;28672;-70
2022/02/02 14:32:13;;;;;;;4.43;2.58;;;7.10;99.90;;;;;;460345;258;27583;-70
2022/02/02 14:34:14;;;;;;;4.45;3.00;;;7.00;99.90;;;;;;459910;258;27487;-70
2022/02/02 14:36:19;;;;;;;5.68;2.42;;;7.00;99.90;;;;;;459898;258;27562;-70
2022/02/02 14:38:18;;;;;;;3.95;2.70;;;7.00;99.90;;;;;;459889;258;27487;-70
2022/02/02 14:40:33;;;;;;;3.50;2.53;;;6.90;99.90;;;;;;459877;258;27542;-70
2022/02/02 14:42:30;;;;;;;4.22;2.40;;;6.90;99.90;;;;;;459794;258;27913;-70
2022/02/02 14:44:32;;;;;;;5.55;2.28;;;6.80;99.90;;;;;;459893;258;27598;-70
2022/02/02 14:46:40;;;;;;;2.72;2.12;;;6.80;99.90;;;;;;459895;258;27555;-70
2022/02/02 14:48:34;;;;;;;3.90;2.33;;;6.80;99.90;;;;;;459696;258;28996;-70
2022/02/02 14:50:50;;;;;;;7.97;2.37;;;6.80;99.90;;;;;;459912;258;28089;-70
2022/02/02 14:56:02;;;;;;;4.03;2.12;;;6.90;99.90;;;;;;459889;258;27472;-70
2022/02/02 15:28:46;;;;;;;2.75;2.10;;;6.90;99.90;;;;;;459870;258;27485;-70
2022/02/02 15:31:00;;;;;;;1.83;1.73;;;6.90;99.90;;;;;;459897;258;27938;-70
2022/02/02 15:32:59;;;;;;;3.80;2.22;;;6.90;99.90;;;;;;459931;258;27936;-70
2022/02/02 15:34:59;;;;;;;1.92;1.83;;;6.90;99.90;;;;;;459892;258;28090;-70
2022/02/02 15:39:08;;;;;;;1.95;1.85;;;6.90;99.90;;;;;;459902;258;27475;-69
2022/02/02 15:41:08;;;;;;;1.80;1.70;;;6.90;99.90;;;;;;459914;258;27510;-70
2022/02/02 15:43:32;;;;;;;2.37;2.05;;;6.90;99.90;;;;;;459878;258;27475;-70
2022/02/02 15:54:44;;;;;;;3.40;1.80;;;6.90;99.90;;;;;;459914;258;27483;-70
2022/02/02 15:58:49;;;;;;;2.70;1.58;;;6.80;99.90;;;;;;460387;258;28059;-69
2022/02/02 16:03:12;;;;;;;1.90;1.50;;;6.90;99.90;;;;;;459881;258;27486;-69
2022/02/02 16:05:15;;;;;;;1.50;1.40;;;6.80;99.90;;;;;;459889;258;27915;-70
2022/02/02 16:07:22;;;;;;;1.77;1.67;;;6.90;99.90;;;;;;459911;258;28013;-69
2022/02/02 16:11:29;;;;;;;1.52;1.42;;;6.80;99.90;;;;;;459909;258;27919;-69
2022/02/02 16:13:34;;;;;;;2.05;1.85;;;6.80;99.90;;;;;;459883;258;27915;-69
2022/02/02 16:15:32;;;;;;;1.45;1.40;;;6.80;99.90;;;;;;459897;258;27915;-70
2022/02/02 16:17:42;;;;;;;2.00;1.80;;;6.80;99.90;;;;;;459883;258;27502;-69
2022/02/02 16:24:37;;;;;;;2.00;1.80;;;6.80;99.90;;;;;;459752;258;27494;-69
2022/02/02 16:37:49;;;;;;;1.67;1.58;;;6.70;99.90;;;;;;459906;258;27534;-69
2022/02/02 16:39:53;;;;;;;2.08;1.83;;;6.70;99.90;;;;;;460366;258;27539;-69
2022/02/02 16:44:10;;;;;;;2.00;1.90;;;6.60;99.90;;;;;;459902;258;27515;-69
2022/02/02 16:46:12;;;;;;;1.95;1.85;;;6.60;99.90;;;;;;460349;258;28008;-69
2022/02/02 16:48:13;;;;;;;2.58;2.37;;;6.60;99.90;;;;;;459864;258;27995;-69
2022/02/02 16:50:18;;;;;;;2.05;1.85;;;6.60;99.90;;;;;;459791;258;27976;-69
2022/02/02 16:52:20;;;;;;;1.50;1.40;;;6.60;99.90;;;;;;459861;258;27475;-69
2022/02/02 16:54:23;;;;;;;2.08;1.73;;;6.60;99.90;;;;;;459881;258;27506;-70
2022/02/02 17:30:30;;;;;;;1.30;1.30;;;6.40;99.90;;;;;;459888;258;27995;-69
2022/02/02 17:34:42;;;;;;;1.60;1.50;;;6.30;99.90;;;;;;459843;258;27551;-69
2022/02/02 17:36:44;;;;;;;1.80;1.70;;;6.30;99.90;;;;;;459892;258;28105;-69
2022/02/02 17:38:53;;;;;;;1.80;1.70;;;6.30;99.90;;;;;;459747;258;27482;-69
2022/02/02 17:41:14;;;;;;;1.50;1.40;;;6.30;99.90;;;;;;459865;258;27919;-69
2022/02/02 17:45:28;;;;;;;1.60;1.50;;;6.30;99.90;;;;;;459883;258;27579;-69
2022/02/02 18:19:08;;;;;;;2.50;2.30;;;6.30;99.90;;;;;;459892;258;27542;-69
2022/02/02 18:21:07;;;;;;;2.30;2.00;;;6.30;99.90;;;;;;459876;258;27576;-69
2022/02/02 18:23:22;;;;;;;2.83;2.53;;;6.30;99.90;;;;;;459887;258;27498;-70